createdAt,value
2019-01-23T00:01:51.347Z,34.00
2019-01-23T00:04:21.875Z,35.87
2019-01-23T00:06:52.368Z,37.53
2019-01-23T00:09:22.955Z,35.80
2019-01-23T00:11:53.569Z,32.60
2019-01-23T00:14:24.321Z,34.73
2019-01-23T00:16:55.172Z,34.80
2019-01-23T00:19:26.049Z,34.27
2019-01-23T00:21:56.688Z,34.10
2019-01-23T00:24:27.283Z,32.80
2019-01-23T00:26:58.195Z,30.70
2019-01-23T00:29:28.882Z,32.17
2019-01-23T00:31:59.945Z,33.47
2019-01-23T00:34:30.491Z,33.83
2019-01-23T00:37:01.047Z,33.47
2019-01-23T00:39:31.781Z,32.50
2019-01-23T00:42:02.326Z,35.30
2019-01-23T00:44:33.086Z,34.70
2019-01-23T00:47:03.703Z,34.23
2019-01-23T00:49:34.612Z,36.17
2019-01-23T00:52:05.200Z,31.80
2019-01-23T00:54:36.508Z,33.60
2019-01-23T00:57:07.252Z,36.47
2019-01-23T00:59:38.061Z,34.93
2019-01-23T01:02:08.616Z,35.07
2019-01-23T01:04:39.341Z,31.73
2019-01-23T01:07:10.140Z,30.53
2019-01-23T01:09:41.427Z,29.43
2019-01-23T01:12:12.059Z,30.87
2019-01-23T01:14:42.968Z,30.67
2019-01-23T01:17:13.532Z,31.13
2019-01-23T01:19:44.573Z,29.20
2019-01-23T01:22:15.154Z,30.60
2019-01-23T01:24:45.892Z,29.90
2019-01-23T01:27:16.327Z,32.83
2019-01-23T01:29:47.099Z,28.20
2019-01-23T01:32:17.736Z,29.83
2019-01-23T01:34:48.261Z,31.27
2019-01-23T01:37:18.718Z,30.20
2019-01-23T01:39:49.831Z,28.93
2019-01-23T01:42:20.553Z,28.80
2019-01-23T01:44:50.982Z,28.13
2019-01-23T01:47:21.718Z,23.80
2019-01-23T01:49:52.303Z,22.73
2019-01-23T01:52:22.950Z,20.03
2019-01-23T01:54:53.735Z,20.10
2019-01-23T01:57:25.645Z,20.67
2019-01-23T01:59:56.550Z,21.00
2019-01-23T02:02:27.362Z,23.33
2019-01-23T02:04:58.421Z,23.90
2019-01-23T02:07:28.940Z,22.90
2019-01-23T02:09:59.632Z,22.40
2019-01-23T02:12:30.220Z,23.17
2019-01-23T02:15:00.777Z,24.77
2019-01-23T02:17:31.723Z,23.43
2019-01-23T02:20:02.258Z,25.43
2019-01-23T02:22:32.940Z,22.43
2019-01-23T02:25:04.342Z,24.60
2019-01-23T02:27:35.100Z,22.13
2019-01-23T02:30:07.397Z,22.13
2019-01-23T02:32:38.285Z,23.93
2019-01-23T02:35:09.824Z,24.87
2019-01-23T02:37:40.845Z,23.93
2019-01-23T02:40:14.505Z,25.80
2019-01-23T02:42:45.294Z,25.83
2019-01-23T02:45:16.480Z,25.80
2019-01-23T02:47:47.356Z,24.53
2019-01-23T02:50:18.189Z,24.20
2019-01-23T02:52:49.845Z,24.60
2019-01-23T02:55:21.058Z,22.00
2019-01-23T02:57:51.788Z,25.67
2019-01-23T03:00:22.364Z,23.47
2019-01-23T03:02:53.184Z,22.63
2019-01-23T03:05:23.877Z,21.10
2019-01-23T03:07:54.658Z,22.90
2019-01-23T03:10:25.477Z,23.27
2019-01-23T03:12:55.975Z,19.97
2019-01-23T03:15:26.943Z,22.27
2019-01-23T03:17:58.333Z,24.47
2019-01-23T03:20:29.417Z,23.90
2019-01-23T03:23:00.407Z,21.77
2019-01-23T03:25:31.309Z,21.30
2019-01-23T03:28:02.091Z,21.43
2019-01-23T03:30:32.832Z,22.00
2019-01-23T03:33:03.692Z,22.90
2019-01-23T03:35:34.680Z,21.90
2019-01-23T03:38:05.525Z,23.17
2019-01-23T03:40:36.103Z,25.00
2019-01-23T03:43:06.911Z,22.43
2019-01-23T03:45:37.725Z,26.03
2019-01-23T03:48:08.805Z,22.93
2019-01-23T03:50:40.139Z,23.37
2019-01-23T03:53:10.963Z,22.50
2019-01-23T03:55:41.842Z,22.43
2019-01-23T03:58:12.470Z,25.10
2019-01-23T04:00:43.164Z,22.80
2019-01-23T04:03:13.912Z,22.93
2019-01-23T04:05:44.648Z,24.43
2019-01-23T04:08:15.558Z,22.97
2019-01-23T04:10:46.418Z,24.13
2019-01-23T04:13:17.098Z,25.17
2019-01-23T04:15:47.891Z,25.53
2019-01-23T04:18:18.806Z,24.23
2019-01-23T04:20:49.402Z,22.57
2019-01-23T04:23:20.006Z,22.27
2019-01-23T04:25:50.739Z,21.13
2019-01-23T04:28:21.862Z,23.13
2019-01-23T04:30:52.391Z,22.67
2019-01-23T04:33:22.958Z,21.83
2019-01-23T04:35:53.491Z,25.40
2019-01-23T04:38:24.455Z,23.33
2019-01-23T04:40:55.263Z,22.73
2019-01-23T04:43:25.791Z,23.93
2019-01-23T04:45:56.493Z,23.00
2019-01-23T04:48:26.991Z,23.33
2019-01-23T04:51:22.543Z,25.07
2019-01-23T04:53:53.209Z,22.50
2019-01-23T04:56:23.849Z,22.10
2019-01-23T04:58:54.391Z,21.97
2019-01-23T05:01:25.214Z,22.33
2019-01-23T05:03:56.009Z,22.83
2019-01-23T05:06:26.520Z,23.57
2019-01-23T05:08:57.252Z,24.03
2019-01-23T05:11:27.894Z,30.30
2019-01-23T05:13:58.613Z,26.40
2019-01-23T05:16:29.316Z,25.77
2019-01-23T05:18:59.860Z,32.90
2019-01-23T05:21:30.519Z,34.33
2019-01-23T05:24:01.106Z,28.73
2019-01-23T05:26:32.525Z,25.33
2019-01-23T05:29:03.231Z,24.93
2019-01-23T05:31:33.995Z,26.23
2019-01-23T05:34:04.912Z,29.30
2019-01-23T05:36:36.502Z,36.10
2019-01-23T05:39:09.350Z,36.77
2019-01-23T05:41:39.822Z,36.47
2019-01-23T05:44:10.259Z,34.87
2019-01-23T05:46:40.841Z,35.17
2019-01-23T05:49:11.678Z,34.40
2019-01-23T05:51:42.304Z,33.33
2019-01-23T05:54:13.295Z,34.97
2019-01-23T05:56:43.832Z,29.30
2019-01-23T05:59:14.274Z,26.70
2019-01-23T06:01:44.934Z,26.23
2019-01-23T06:04:15.655Z,26.93
2019-01-23T06:06:46.275Z,24.77
2019-01-23T06:09:17.156Z,23.60
2019-01-23T06:11:47.761Z,24.93
2019-01-23T06:14:18.355Z,28.03
2019-01-23T06:16:48.905Z,26.57
2019-01-23T06:19:19.703Z,29.00
2019-01-23T06:21:50.458Z,27.73
2019-01-23T06:24:21.441Z,29.03
2019-01-23T06:26:51.892Z,23.97
2019-01-23T06:29:22.413Z,23.40
2019-01-23T06:31:52.946Z,25.17
2019-01-23T06:34:23.478Z,26.07
2019-01-23T06:36:53.979Z,28.67
2019-01-23T06:39:24.785Z,24.37
2019-01-23T06:41:55.379Z,24.47
2019-01-23T06:44:26.270Z,24.63
2019-01-23T06:46:57.040Z,25.33
2019-01-23T06:49:27.726Z,22.53
2019-01-23T06:51:58.396Z,24.47
2019-01-23T06:54:28.913Z,23.83
2019-01-23T06:56:59.445Z,22.97
2019-01-23T06:59:30.064Z,23.33
2019-01-23T07:02:00.889Z,24.40
2019-01-23T07:04:31.504Z,22.57
2019-01-23T07:07:02.145Z,26.87
2019-01-23T07:09:33.072Z,23.27
2019-01-23T07:12:03.731Z,23.63
2019-01-23T07:14:34.737Z,26.17
2019-01-23T07:17:05.766Z,25.20
2019-01-23T07:19:36.555Z,22.60
2019-01-23T07:22:07.589Z,26.50
2019-01-23T07:24:38.311Z,24.23
2019-01-23T07:27:09.430Z,22.13
2019-01-23T07:29:40.001Z,26.30
2019-01-23T07:32:10.671Z,28.83
2019-01-23T07:34:41.370Z,25.70
2019-01-23T07:37:12.010Z,27.07
2019-01-23T07:39:42.515Z,26.03
2019-01-23T07:42:12.954Z,25.63
2019-01-23T07:44:43.526Z,25.27
2019-01-23T07:47:14.075Z,24.50
2019-01-23T07:49:44.634Z,25.50
2019-01-23T07:52:15.647Z,28.00
2019-01-23T07:54:46.430Z,26.00
2019-01-23T07:57:17.102Z,24.67
2019-01-23T07:59:47.828Z,27.77
2019-01-23T08:02:18.620Z,25.23
2019-01-23T08:04:49.468Z,27.20
2019-01-23T08:07:20.136Z,27.27
2019-01-23T08:09:50.797Z,27.83
2019-01-23T08:12:21.351Z,28.33
2019-01-23T08:14:52.268Z,26.60
2019-01-23T08:17:23.988Z,30.07
2019-01-23T08:19:54.889Z,34.00
2019-01-23T08:22:25.643Z,34.97
2019-01-23T08:24:56.355Z,32.60
2019-01-23T08:27:26.961Z,29.97
2019-01-23T08:29:57.914Z,27.83
2019-01-23T08:32:28.721Z,26.87
2019-01-23T08:34:59.761Z,30.80
2019-01-23T08:37:30.421Z,25.17
2019-01-23T08:40:01.157Z,26.87
2019-01-23T08:42:31.853Z,26.97
2019-01-23T08:45:02.714Z,25.27
2019-01-23T08:47:33.549Z,25.40
2019-01-23T08:50:05.339Z,25.40
2019-01-23T08:52:36.129Z,25.67
2019-01-23T08:55:07.305Z,25.13
2019-01-23T08:57:37.875Z,27.90
2019-01-23T09:00:09.193Z,25.10
2019-01-23T09:02:39.735Z,25.77
2019-01-23T09:05:10.329Z,26.13
2019-01-23T09:07:41.107Z,24.77
2019-01-23T09:10:14.667Z,26.33
2019-01-23T09:12:45.126Z,26.63
2019-01-23T09:15:16.341Z,25.47
2019-01-23T09:17:48.702Z,26.27
2019-01-23T09:20:19.932Z,25.23
2019-01-23T09:22:50.759Z,25.37
2019-01-23T09:25:23.196Z,24.53
2019-01-23T09:27:54.271Z,25.40
2019-01-23T09:30:34.283Z,25.20
2019-01-23T09:33:49.926Z,26.47
2019-01-23T09:36:33.409Z,25.50
2019-01-23T09:39:45.046Z,27.60
2019-01-23T09:42:26.880Z,25.10
2019-01-23T09:45:28.512Z,25.43
2019-01-23T09:48:24.772Z,26.03
2019-01-23T09:51:30.958Z,26.40
2019-01-23T09:54:07.654Z,20.97
2019-01-23T09:56:40.816Z,25.60
2019-01-23T09:59:11.816Z,23.77
2019-01-23T10:01:44.894Z,26.13
2019-01-23T10:04:16.221Z,24.63
2019-01-23T10:06:47.381Z,25.87
2019-01-23T10:09:18.109Z,24.17
2019-01-23T10:11:48.604Z,24.47
2019-01-23T10:14:19.353Z,25.57
2019-01-23T10:16:50.336Z,28.43
2019-01-23T10:19:21.489Z,25.67
2019-01-23T10:21:52.559Z,24.13
2019-01-23T10:24:23.850Z,24.13
2019-01-23T10:26:54.883Z,30.33
2019-01-23T10:29:25.944Z,23.30
2019-01-23T10:31:56.941Z,25.90
2019-01-23T10:34:29.647Z,27.97
2019-01-23T10:37:01.711Z,25.93
2019-01-23T10:39:32.736Z,24.47
2019-01-23T10:42:04.003Z,25.93
2019-01-23T10:44:35.358Z,25.27
2019-01-23T10:47:06.357Z,26.73
2019-01-23T10:49:37.539Z,26.43
2019-01-23T10:52:08.817Z,26.53
2019-01-23T10:54:39.858Z,25.13
2019-01-23T10:57:10.930Z,26.27
2019-01-23T10:59:42.004Z,25.10
2019-01-23T11:02:13.076Z,27.67
2019-01-23T11:04:44.205Z,26.90
2019-01-23T11:07:15.490Z,26.10
2019-01-23T11:09:46.664Z,25.80
2019-01-23T11:12:19.564Z,23.30
2019-01-23T11:14:50.856Z,25.87
2019-01-23T11:17:22.678Z,24.00
2019-01-23T11:19:53.855Z,21.13
2019-01-23T11:22:25.095Z,23.93
2019-01-23T11:24:56.298Z,22.70
2019-01-23T11:27:27.680Z,25.37
2019-01-23T11:29:59.009Z,23.53
2019-01-23T11:32:30.248Z,22.13
2019-01-23T11:35:01.471Z,22.50
2019-01-23T11:37:32.817Z,21.83
2019-01-23T11:40:04.998Z,26.40
2019-01-23T11:42:36.371Z,23.47
2019-01-23T11:45:08.734Z,23.63
2019-01-23T11:47:41.018Z,22.13
2019-01-23T11:50:13.591Z,20.77
2019-01-23T11:52:45.585Z,22.33
2019-01-23T11:55:16.968Z,21.17
2019-01-23T11:57:48.176Z,22.43
2019-01-23T12:00:21.555Z,21.03
2019-01-23T12:02:55.875Z,22.70
2019-01-23T12:05:27.603Z,22.20
2019-01-23T12:07:59.170Z,20.47
2019-01-23T12:10:30.251Z,20.50
2019-01-23T12:13:01.574Z,20.40
2019-01-23T12:15:32.796Z,20.40
2019-01-23T12:18:03.963Z,19.20
2019-01-23T12:20:35.131Z,18.43
2019-01-23T12:23:06.410Z,18.93
2019-01-23T12:25:37.767Z,19.60
2019-01-23T12:28:09.845Z,18.73
2019-01-23T12:30:42.272Z,19.87
2019-01-23T12:33:13.700Z,20.07
2019-01-23T12:35:44.801Z,19.50
2019-01-23T12:38:16.217Z,21.33
2019-01-23T12:40:47.312Z,21.10
2019-01-23T12:43:18.545Z,20.43
2019-01-23T12:45:49.776Z,18.77
2019-01-23T12:48:21.098Z,17.73
2019-01-23T12:50:52.449Z,19.87
2019-01-23T12:53:23.621Z,18.67
2019-01-23T12:55:54.972Z,17.97
2019-01-23T12:58:26.266Z,15.63
2019-01-23T13:00:57.684Z,16.80
2019-01-23T13:03:29.566Z,16.17
2019-01-23T13:06:00.687Z,16.37
2019-01-23T13:08:33.087Z,17.33
2019-01-23T13:11:04.254Z,18.47
2019-01-23T13:13:35.447Z,14.67
2019-01-23T13:16:06.634Z,18.10
2019-01-23T13:18:37.826Z,18.37
2019-01-23T13:21:09.069Z,17.63
2019-01-23T13:23:40.330Z,19.50
2019-01-23T13:26:11.384Z,19.10
2019-01-23T13:28:42.679Z,20.13
2019-01-23T13:31:13.925Z,20.67
2019-01-23T13:33:45.017Z,20.73
2019-01-23T13:36:16.161Z,19.53
2019-01-23T13:38:47.227Z,20.17
2019-01-23T13:41:18.484Z,19.13
2019-01-23T13:43:49.899Z,19.20
2019-01-23T13:46:21.147Z,18.60
2019-01-23T13:48:52.283Z,19.07
2019-01-23T13:51:23.705Z,19.23
2019-01-23T13:53:55.633Z,19.00
2019-01-23T13:56:26.909Z,20.80
2019-01-23T13:58:58.667Z,19.63
2019-01-23T14:01:30.034Z,19.93
2019-01-23T14:04:01.142Z,19.80
2019-01-23T14:06:32.322Z,18.47
2019-01-23T14:09:04.748Z,18.47
2019-01-23T14:11:36.214Z,17.20
2019-01-23T14:14:07.381Z,18.50
2019-01-23T14:16:38.452Z,19.00
2019-01-23T14:19:09.635Z,19.70
2019-01-23T14:21:41.730Z,17.23
2019-01-23T14:24:13.265Z,18.47
2019-01-23T14:26:44.630Z,18.67
2019-01-23T14:29:15.726Z,19.00
2019-01-23T14:31:47.108Z,17.73
2019-01-23T14:34:18.438Z,20.13
2019-01-23T14:36:49.593Z,17.57
2019-01-23T14:39:21.169Z,18.67
2019-01-23T14:41:52.395Z,16.17
2019-01-23T14:44:23.201Z,15.57
2019-01-23T14:46:54.333Z,15.97
2019-01-23T14:49:25.901Z,16.43
2019-01-23T14:51:57.097Z,16.50
2019-01-23T14:54:28.480Z,17.30
2019-01-23T14:57:00.741Z,16.57
2019-01-23T14:59:31.985Z,18.20
2019-01-23T15:02:09.936Z,15.57
2019-01-23T15:04:36.517Z,18.67
2019-01-23T15:07:07.983Z,15.90
2019-01-23T15:09:39.639Z,15.83
2019-01-23T15:12:10.777Z,17.40
2019-01-23T15:14:42.129Z,16.83
2019-01-23T15:17:13.779Z,16.83
2019-01-23T15:19:45.133Z,17.20
2019-01-23T15:22:16.651Z,17.63
2019-01-23T15:24:48.064Z,17.60
2019-01-23T15:27:19.142Z,14.10
2019-01-23T15:29:50.344Z,16.63
2019-01-23T15:32:21.681Z,18.67
2019-01-23T15:34:52.772Z,17.73
2019-01-23T15:37:23.971Z,19.50
2019-01-23T15:39:55.182Z,18.00
2019-01-23T15:42:26.318Z,20.30
2019-01-23T15:44:57.529Z,21.27
2019-01-23T15:47:28.973Z,20.20
2019-01-23T15:50:00.093Z,22.07
2019-01-23T15:52:31.610Z,18.60
2019-01-23T15:55:02.875Z,19.93
2019-01-23T15:57:34.059Z,20.70
2019-01-23T16:00:06.651Z,20.43
2019-01-23T16:02:37.474Z,20.17
2019-01-23T16:05:09.137Z,20.17
2019-01-23T16:07:40.299Z,19.60
2019-01-23T16:10:14.532Z,19.27
2019-01-23T16:12:45.833Z,21.17
2019-01-23T16:15:18.141Z,21.03
2019-01-23T16:17:49.371Z,21.47
2019-01-23T16:20:21.016Z,20.97
2019-01-23T16:22:52.579Z,19.43
2019-01-23T16:25:26.966Z,20.47
2019-01-23T16:27:58.151Z,21.00
2019-01-23T16:30:34.423Z,20.10
2019-01-23T16:33:05.712Z,18.97
2019-01-23T16:35:38.854Z,18.97
2019-01-23T16:38:11.335Z,19.30
2019-01-23T16:40:42.670Z,20.33
2019-01-23T16:43:13.981Z,17.13
2019-01-23T16:45:45.538Z,16.77
2019-01-23T16:48:16.345Z,17.80
2019-01-23T16:50:47.600Z,16.13
2019-01-23T16:53:18.878Z,15.60
2019-01-23T16:55:50.175Z,17.43
2019-01-23T16:58:21.416Z,17.50
2019-01-23T17:00:52.531Z,17.83
2019-01-23T17:03:23.818Z,17.47
2019-01-23T17:05:55.072Z,19.83
2019-01-23T17:08:26.720Z,16.47
2019-01-23T17:10:58.118Z,18.57
2019-01-23T17:13:29.364Z,14.93
2019-01-23T17:16:00.750Z,14.37
2019-01-23T17:18:31.894Z,17.03
2019-01-23T17:21:03.021Z,15.83
2019-01-23T17:23:34.170Z,18.47
2019-01-23T17:26:06.159Z,15.57
2019-01-23T17:28:37.348Z,18.97
2019-01-23T17:31:08.556Z,18.80
2019-01-23T17:33:39.946Z,19.17
2019-01-23T17:36:11.108Z,28.00
2019-01-23T17:38:42.219Z,20.27
2019-01-23T17:41:13.336Z,17.93
2019-01-23T17:43:44.984Z,18.20
2019-01-23T17:46:17.806Z,17.93
2019-01-23T17:48:49.163Z,19.93
2019-01-23T17:51:20.219Z,20.83
2019-01-23T17:53:51.224Z,18.90
2019-01-23T17:56:21.723Z,17.67
2019-01-23T17:58:52.563Z,18.40
2019-01-23T18:01:23.221Z,18.03
2019-01-23T18:03:54.155Z,18.40
2019-01-23T18:06:25.068Z,17.90
2019-01-23T18:08:55.834Z,18.40
2019-01-23T18:11:26.828Z,18.43
2019-01-23T18:13:58.049Z,16.40
2019-01-23T18:16:28.958Z,17.30
2019-01-23T18:18:59.824Z,15.83
2019-01-23T18:21:30.626Z,16.10
2019-01-23T18:24:01.337Z,16.43
2019-01-23T18:26:37.535Z,17.10
2019-01-23T18:29:06.346Z,17.73
2019-01-23T18:31:46.954Z,17.37
2019-01-23T18:34:50.648Z,16.17
2019-01-23T18:37:35.531Z,16.97
2019-01-23T18:40:55.534Z,19.27
2019-01-23T18:43:52.095Z,17.83
2019-01-23T18:47:03.950Z,16.93
2019-01-23T18:50:04.147Z,17.70
2019-01-23T18:52:34.993Z,16.23
2019-01-23T18:55:07.847Z,17.47
2019-01-23T18:57:38.657Z,18.20
2019-01-23T19:00:13.350Z,19.10
2019-01-23T19:02:44.168Z,19.60
2019-01-23T19:05:17.135Z,17.23
2019-01-23T19:07:48.109Z,17.07
2019-01-23T19:10:19.909Z,17.80
2019-01-23T19:12:51.168Z,17.27
2019-01-23T19:15:21.975Z,17.37
2019-01-23T19:17:52.722Z,18.00
2019-01-23T19:20:24.681Z,18.03
2019-01-23T19:22:55.592Z,17.93
2019-01-23T19:25:28.064Z,18.80
2019-01-23T19:27:58.917Z,15.33
2019-01-23T19:30:30.573Z,16.20
2019-01-23T19:33:01.634Z,16.97
2019-01-23T19:35:32.641Z,16.47
2019-01-23T19:38:03.430Z,18.30
2019-01-23T19:40:34.571Z,18.13
2019-01-23T19:43:05.315Z,16.47
2019-01-23T19:45:37.970Z,19.07
2019-01-23T19:48:18.422Z,16.53
2019-01-23T19:50:49.347Z,18.53
2019-01-23T19:53:20.134Z,18.20
2019-01-23T19:55:51.415Z,17.53
2019-01-23T19:58:23.675Z,18.67
2019-01-23T20:00:54.436Z,17.53
2019-01-23T20:03:25.553Z,18.63
2019-01-23T20:06:03.013Z,19.47
2019-01-23T20:08:35.567Z,18.73
2019-01-23T20:11:06.715Z,18.90
2019-01-23T20:13:39.388Z,17.97
2019-01-23T20:16:10.152Z,17.97
2019-01-23T20:18:41.134Z,19.80
2019-01-23T20:21:13.850Z,18.97
2019-01-23T20:23:44.657Z,17.67
2019-01-23T20:26:15.720Z,20.43
2019-01-23T20:28:46.615Z,19.83
2019-01-23T20:31:17.715Z,19.03
2019-01-23T20:33:48.375Z,17.80
2019-01-23T20:36:19.379Z,19.83
2019-01-23T20:38:50.337Z,16.50
2019-01-23T20:41:21.612Z,16.73
2019-01-23T20:43:52.536Z,18.93
2019-01-23T20:46:23.426Z,18.80
2019-01-23T20:48:54.272Z,19.60
2019-01-23T20:51:25.305Z,18.77
2019-01-23T20:53:56.158Z,18.57
2019-01-23T20:56:26.694Z,20.70
2019-01-23T20:58:57.349Z,18.40
2019-01-23T21:01:28.370Z,19.53
2019-01-23T21:03:59.632Z,20.10
2019-01-23T21:06:31.000Z,18.83
2019-01-23T21:09:02.017Z,19.27
2019-01-23T21:11:34.368Z,17.90
2019-01-23T21:14:05.595Z,18.97
2019-01-23T21:16:36.666Z,17.37
2019-01-23T21:19:07.681Z,17.43
2019-01-23T21:21:38.414Z,18.00
2019-01-23T21:24:09.343Z,19.23
2019-01-23T21:26:40.091Z,15.13
2019-01-23T21:29:10.834Z,17.77
2019-01-23T21:31:41.965Z,17.80
2019-01-23T21:34:12.945Z,17.93
2019-01-23T21:36:44.782Z,18.13
2019-01-23T21:39:15.647Z,16.80
2019-01-23T21:41:46.737Z,17.97
2019-01-23T21:44:17.859Z,16.73
2019-01-23T21:46:49.177Z,19.53
2019-01-23T21:49:20.025Z,18.50
2019-01-23T21:51:51.126Z,15.07
2019-01-23T21:54:22.007Z,18.67
2019-01-23T21:56:53.047Z,18.00
2019-01-23T21:59:24.482Z,19.23
2019-01-23T22:01:55.711Z,18.03
2019-01-23T22:04:26.562Z,18.20
2019-01-23T22:06:57.903Z,17.13
2019-01-23T22:09:28.843Z,18.33
2019-01-23T22:11:59.549Z,17.50
2019-01-23T22:14:30.565Z,18.23
2019-01-23T22:17:01.404Z,16.37
2019-01-23T22:19:32.139Z,17.23
2019-01-23T22:22:02.821Z,17.27
2019-01-23T22:24:33.679Z,16.03
2019-01-23T22:27:04.442Z,18.17
2019-01-23T22:29:35.231Z,15.67
2019-01-23T22:32:06.022Z,16.17
2019-01-23T22:34:36.896Z,17.13
2019-01-23T22:37:07.865Z,16.90
2019-01-23T22:39:38.582Z,17.73
2019-01-23T22:42:09.343Z,16.70
2019-01-23T22:44:40.190Z,16.70
2019-01-23T22:47:11.052Z,16.93
2019-01-23T22:49:41.740Z,17.10
2019-01-23T22:52:12.695Z,16.10
2019-01-23T22:54:43.779Z,16.63
2019-01-23T22:57:15.318Z,14.30
2019-01-23T22:59:46.100Z,16.87
2019-01-23T23:02:16.721Z,14.60
2019-01-23T23:04:47.760Z,17.10
2019-01-23T23:07:18.445Z,16.97
2019-01-23T23:09:50.373Z,17.57
2019-01-23T23:12:21.300Z,16.00
2019-01-23T23:14:52.307Z,15.00
2019-01-23T23:17:23.316Z,15.30
2019-01-23T23:19:53.909Z,17.40
2019-01-23T23:22:24.815Z,15.10
2019-01-23T23:24:55.484Z,15.40
2019-01-23T23:27:26.428Z,15.77
2019-01-23T23:29:57.234Z,16.10
2019-01-23T23:32:28.320Z,16.07
2019-01-23T23:34:58.915Z,16.03
2019-01-23T23:37:29.673Z,16.03
2019-01-23T23:40:00.282Z,15.87
2019-01-23T23:42:30.753Z,15.80
2019-01-23T23:45:02.241Z,15.93
2019-01-23T23:47:32.978Z,14.40
2019-01-23T23:50:03.482Z,16.10
2019-01-23T23:52:34.169Z,14.83
2019-01-23T23:55:05.851Z,16.40
2019-01-23T23:57:36.667Z,15.17
